createdAt,value
2019-01-31T00:02:27.232Z,96027.80
2019-01-31T00:05:22.380Z,96025.42
2019-01-31T00:08:14.473Z,96024.30
2019-01-31T00:10:51.123Z,96032.88
2019-01-31T00:14:15.494Z,96033.53
2019-01-31T00:17:01.804Z,96032.48
2019-01-31T00:19:41.823Z,96029.94
2019-01-31T00:22:30.767Z,96030.87
2019-01-31T00:25:30.658Z,96033.28
2019-01-31T00:28:25.657Z,96027.20
2019-01-31T00:31:05.538Z,96019.41
2019-01-31T00:33:42.443Z,96026.31
2019-01-31T00:36:34.690Z,96030.41
2019-01-31T00:39:14.705Z,96038.04
2019-01-31T00:41:54.707Z,96039.29
2019-01-31T00:44:31.908Z,96036.08
2019-01-31T00:47:29.990Z,96042.86
2019-01-31T00:50:31.162Z,96043.08
2019-01-31T00:53:38.763Z,96042.70
2019-01-31T00:56:46.258Z,96043.72
2019-01-31T00:59:50.245Z,96044.38
2019-01-31T01:02:36.111Z,96045.53
2019-01-31T01:05:36.001Z,96049.73
2019-01-31T01:08:22.210Z,96054.81
2019-01-31T01:11:16.055Z,96050.97
2019-01-31T01:13:59.000Z,96057.96
2019-01-31T01:16:54.068Z,96053.91
2019-01-31T01:19:50.752Z,96059.31
2019-01-31T01:22:36.776Z,96059.91
2019-01-31T01:25:42.688Z,96062.97
2019-01-31T01:28:43.812Z,96065.50
2019-01-31T01:31:35.957Z,96070.80
2019-01-31T01:34:41.666Z,96069.94
2019-01-31T01:37:15.824Z,96076.16
2019-01-31T01:40:07.974Z,96080.41
2019-01-31T01:43:00.230Z,96078.30
2019-01-31T01:46:01.591Z,96074.50
2019-01-31T01:48:44.044Z,96067.13
2019-01-31T01:51:33.130Z,96067.70
2019-01-31T01:54:32.847Z,96067.35
2019-01-31T01:57:58.858Z,96062.49
2019-01-31T02:00:50.865Z,96057.48
2019-01-31T02:03:54.647Z,96057.62
2019-01-31T02:06:34.221Z,96050.80
2019-01-31T02:09:30.237Z,96047.97
2019-01-31T02:12:35.312Z,96047.45
2019-01-31T02:15:30.590Z,96035.63
2019-01-31T02:18:10.141Z,96035.21
2019-01-31T02:21:09.929Z,96029.95
2019-01-31T02:23:55.858Z,96029.70
2019-01-31T02:26:52.553Z,96020.20
2019-01-31T02:29:55.618Z,96015.94
2019-01-31T02:32:47.810Z,96012.19
2019-01-31T02:35:36.660Z,96011.22
2019-01-31T02:38:39.324Z,96012.58
2019-01-31T02:41:48.519Z,96008.43
2019-01-31T02:44:31.809Z,96004.09
2019-01-31T02:47:11.461Z,96002.01
2019-01-31T02:50:06.556Z,95999.87
2019-01-31T02:52:58.242Z,95991.55
2019-01-31T02:55:37.582Z,95989.45
2019-01-31T02:58:29.377Z,95995.05
2019-01-31T03:01:18.524Z,95993.41
2019-01-31T03:04:04.217Z,95993.88
2019-01-31T03:07:08.406Z,95991.09
2019-01-31T03:09:55.002Z,95988.61
2019-01-31T03:12:46.519Z,95993.48
2019-01-31T03:15:23.642Z,95989.47
2019-01-31T03:18:19.183Z,95980.07
2019-01-31T03:21:13.905Z,95978.37
2019-01-31T03:24:25.862Z,95981.11
2019-01-31T03:27:39.669Z,95981.02
2019-01-31T03:30:59.271Z,95986.95
2019-01-31T03:33:39.134Z,95984.85
2019-01-31T03:36:44.604Z,95981.28
2019-01-31T03:39:21.652Z,95990.28
2019-01-31T03:42:12.589Z,95992.94
2019-01-31T03:45:01.492Z,95994.34
2019-01-31T03:47:47.718Z,95990.15
2019-01-31T03:50:33.952Z,95992.67
2019-01-31T03:53:30.171Z,95998.91
2019-01-31T03:56:16.460Z,96000.84
2019-01-31T03:58:53.655Z,96005.92
2019-01-31T04:01:54.707Z,96005.29
2019-01-31T04:04:40.619Z,96003.50
2019-01-31T04:07:10.107Z,96003.33
2019-01-31T04:09:39.614Z,96007.96
2019-01-31T04:12:09.109Z,96005.64
2019-01-31T04:14:38.593Z,96008.52
2019-01-31T04:17:08.102Z,96004.11
2019-01-31T04:19:37.602Z,96007.86
2019-01-31T04:22:07.257Z,96008.23
2019-01-31T04:24:36.786Z,96010.80
2019-01-31T04:27:06.265Z,96011.71
2019-01-31T04:29:35.788Z,96009.36
2019-01-31T04:32:05.329Z,96012.09
2019-01-31T04:34:34.806Z,96005.88
2019-01-31T04:37:04.319Z,96006.40
2019-01-31T04:39:33.822Z,96001.96
2019-01-31T04:42:03.303Z,96005.95
2019-01-31T04:44:32.783Z,96006.59
2019-01-31T04:47:02.298Z,96007.14
2019-01-31T04:49:31.806Z,96004.28
2019-01-31T04:52:01.279Z,96002.83
2019-01-31T04:54:30.794Z,96004.58
2019-01-31T04:57:00.255Z,96002.89
2019-01-31T04:59:29.741Z,96002.11
2019-01-31T05:01:59.583Z,95993.66
2019-01-31T05:04:29.081Z,95997.16
2019-01-31T05:06:58.590Z,96004.26
2019-01-31T05:09:28.114Z,96007.78
2019-01-31T05:11:57.597Z,96004.89
2019-01-31T05:14:27.082Z,96013.53
2019-01-31T05:16:56.594Z,96018.61
2019-01-31T05:19:26.102Z,96021.89
2019-01-31T05:21:55.586Z,96020.06
2019-01-31T05:24:25.138Z,96024.17
2019-01-31T05:26:54.634Z,96026.75
2019-01-31T05:29:24.211Z,96027.61
2019-01-31T05:31:53.696Z,96030.44
2019-01-31T05:34:23.184Z,96032.28
2019-01-31T05:36:52.602Z,96025.25
2019-01-31T05:39:22.084Z,96029.15
2019-01-31T05:41:51.586Z,96027.28
2019-01-31T05:44:21.057Z,96030.59
2019-01-31T05:46:50.540Z,96032.38
2019-01-31T05:49:20.336Z,96026.02
2019-01-31T05:51:49.809Z,96028.76
2019-01-31T05:54:19.222Z,96026.31
2019-01-31T05:56:48.728Z,96032.05
2019-01-31T05:59:18.221Z,96028.02
2019-01-31T06:01:47.878Z,96028.14
2019-01-31T06:04:17.372Z,96030.80
2019-01-31T06:06:46.857Z,96032.28
2019-01-31T06:09:16.356Z,96035.30
2019-01-31T06:11:45.869Z,96038.09
2019-01-31T06:14:15.357Z,96040.05
2019-01-31T06:16:44.828Z,96041.66
2019-01-31T06:19:14.339Z,96040.47
2019-01-31T06:21:43.814Z,96043.97
2019-01-31T06:24:13.288Z,96045.73
2019-01-31T06:26:42.800Z,96054.41
2019-01-31T06:29:12.287Z,96053.75
2019-01-31T06:32:01.215Z,96053.31
2019-01-31T06:34:30.722Z,96054.66
2019-01-31T06:37:00.203Z,96056.32
2019-01-31T06:39:29.708Z,96060.17
2019-01-31T06:41:59.291Z,96061.98
2019-01-31T06:44:28.777Z,96061.16
2019-01-31T06:46:58.296Z,96061.41
2019-01-31T06:49:27.791Z,96063.03
2019-01-31T06:51:57.397Z,96064.53
2019-01-31T06:54:26.901Z,96068.25
2019-01-31T06:56:56.375Z,96071.21
2019-01-31T06:59:25.853Z,96077.27
2019-01-31T07:01:55.441Z,96074.65
2019-01-31T07:04:24.921Z,96075.37
2019-01-31T07:06:54.430Z,96076.23
2019-01-31T07:09:23.940Z,96071.64
2019-01-31T07:11:53.347Z,96073.48
2019-01-31T07:14:22.749Z,96083.16
2019-01-31T07:16:52.214Z,96086.60
2019-01-31T07:19:21.686Z,96087.66
2019-01-31T07:21:51.168Z,96094.23
2019-01-31T07:24:20.672Z,96093.47
2019-01-31T07:26:50.173Z,96099.19
2019-01-31T07:29:19.664Z,96097.89
2019-01-31T07:31:49.188Z,96096.60
2019-01-31T07:34:18.691Z,96100.69
2019-01-31T07:36:48.563Z,96102.22
2019-01-31T07:39:18.069Z,96100.92
2019-01-31T07:41:47.562Z,96099.36
2019-01-31T07:44:17.148Z,96102.55
2019-01-31T07:46:46.654Z,96104.48
2019-01-31T07:49:16.135Z,96109.92
2019-01-31T07:51:45.613Z,96115.60
2019-01-31T07:54:15.136Z,96113.69
2019-01-31T07:56:44.616Z,96111.38
2019-01-31T07:59:14.122Z,96117.77
2019-01-31T08:01:43.724Z,96111.50
2019-01-31T08:04:13.229Z,96112.87
2019-01-31T08:06:42.699Z,96111.14
2019-01-31T08:09:12.276Z,96113.75
2019-01-31T08:11:52.084Z,96123.54
2019-01-31T08:14:12.901Z,96117.36
2019-01-31T08:16:42.423Z,96122.86
2019-01-31T08:19:11.941Z,96128.72
2019-01-31T08:21:41.445Z,96126.06
2019-01-31T08:24:10.949Z,96126.99
2019-01-31T08:26:40.470Z,96124.50
2019-01-31T08:29:09.968Z,96131.08
2019-01-31T08:31:39.460Z,96130.36
2019-01-31T08:34:08.943Z,96126.30
2019-01-31T08:36:38.420Z,96129.35
2019-01-31T08:39:08.713Z,96122.47
2019-01-31T08:41:38.209Z,96118.31
2019-01-31T08:44:07.689Z,96119.08
2019-01-31T08:46:37.175Z,96123.38
2019-01-31T08:49:06.652Z,96123.29
2019-01-31T08:51:36.126Z,96112.02
2019-01-31T08:54:05.666Z,96126.12
2019-01-31T08:56:35.146Z,96127.66
2019-01-31T08:59:04.794Z,96127.98
2019-01-31T09:01:34.282Z,96134.78
2019-01-31T09:04:03.767Z,96135.43
2019-01-31T09:06:33.274Z,96131.08
2019-01-31T09:09:03.050Z,96133.15
2019-01-31T09:11:32.541Z,96131.95
2019-01-31T09:14:02.255Z,96133.38
2019-01-31T09:16:31.798Z,96136.35
2019-01-31T09:19:03.996Z,96137.98
2019-01-31T09:21:37.215Z,96145.92
2019-01-31T09:24:44.767Z,96152.13
2019-01-31T09:27:27.574Z,96149.08
2019-01-31T09:30:21.571Z,96151.47
2019-01-31T09:33:04.837Z,96150.94
2019-01-31T09:35:44.721Z,96157.88
2019-01-31T09:38:33.479Z,96152.41
2019-01-31T09:41:19.287Z,96145.58
2019-01-31T09:44:14.791Z,96146.13
2019-01-31T09:47:21.017Z,96144.11
2019-01-31T09:50:30.253Z,96149.98
2019-01-31T09:53:32.852Z,96151.57
2019-01-31T09:56:25.175Z,96141.25
2019-01-31T09:59:08.149Z,96141.60
2019-01-31T10:01:58.785Z,96135.28
2019-01-31T10:04:47.451Z,96134.71
2019-01-31T10:07:47.444Z,96134.39
2019-01-31T10:10:27.382Z,96133.06
2019-01-31T10:13:27.212Z,96132.11
2019-01-31T10:16:22.618Z,96132.39
2019-01-31T10:19:28.930Z,96126.36
2019-01-31T10:22:19.602Z,96120.60
2019-01-31T10:25:05.636Z,96116.86
2019-01-31T10:28:08.566Z,96109.50
2019-01-31T10:30:59.600Z,96115.04
2019-01-31T10:33:42.604Z,96112.85
2019-01-31T10:36:25.832Z,96112.92
2019-01-31T10:39:08.525Z,96114.17
2019-01-31T10:42:05.653Z,96111.61
2019-01-31T10:44:45.694Z,96110.86
2019-01-31T10:47:22.472Z,96108.10
2019-01-31T10:50:14.201Z,96104.13
2019-01-31T10:52:48.387Z,96103.97
2019-01-31T10:55:37.515Z,96102.94
2019-01-31T10:58:17.201Z,96106.97
2019-01-31T11:01:09.043Z,96077.33
2019-01-31T11:03:46.111Z,96100.73
2019-01-31T11:06:41.017Z,96105.32
2019-01-31T11:09:26.811Z,96099.48
2019-01-31T11:12:34.266Z,96095.32
2019-01-31T11:15:25.355Z,96088.42
2019-01-31T11:18:02.267Z,96090.34
2019-01-31T11:20:55.968Z,96084.25
2019-01-31T11:23:44.934Z,96086.59
2019-01-31T11:26:22.125Z,96086.81
2019-01-31T11:29:02.016Z,96082.85
2019-01-31T11:32:03.205Z,96076.88
2019-01-31T11:35:09.114Z,96082.82
2019-01-31T11:38:02.779Z,96077.03
2019-01-31T11:41:06.149Z,96081.40
2019-01-31T11:44:04.588Z,96077.99
2019-01-31T11:46:47.402Z,96080.91
2019-01-31T11:49:30.415Z,96077.00
2019-01-31T11:52:19.515Z,96076.69
2019-01-31T11:55:14.549Z,96077.00
2019-01-31T11:58:18.462Z,96077.04
2019-01-31T12:00:47.970Z,96076.97
2019-01-31T12:03:17.438Z,96081.83
2019-01-31T12:05:46.905Z,96079.20
2019-01-31T12:08:16.406Z,96082.38
2019-01-31T12:10:45.885Z,96081.00
2019-01-31T12:13:23.123Z,96079.79
2019-01-31T12:15:46.603Z,96073.58
2019-01-31T12:18:16.097Z,96070.44
2019-01-31T12:20:45.563Z,96070.41
2019-01-31T12:23:15.064Z,96064.68
2019-01-31T12:25:44.546Z,96065.17
2019-01-31T12:28:14.052Z,96053.61
2019-01-31T12:30:43.543Z,96062.39
2019-01-31T12:33:13.005Z,96056.72
2019-01-31T12:35:42.480Z,96054.55
2019-01-31T12:38:11.982Z,96054.67
2019-01-31T12:40:41.457Z,96054.05
2019-01-31T12:43:10.947Z,96053.06
2019-01-31T12:45:40.432Z,96047.59
2019-01-31T12:48:09.934Z,96049.38
2019-01-31T12:50:39.406Z,96034.38
2019-01-31T12:53:08.917Z,96033.58
2019-01-31T12:55:38.438Z,96034.06
2019-01-31T12:58:07.931Z,96034.53
2019-01-31T13:00:37.458Z,96032.69
2019-01-31T13:03:07.049Z,96029.58
2019-01-31T13:05:36.561Z,96026.85
2019-01-31T13:08:06.088Z,96023.76
2019-01-31T13:10:35.551Z,96022.32
2019-01-31T13:13:05.015Z,96017.25
2019-01-31T13:15:34.518Z,96024.00
2019-01-31T13:18:03.987Z,96017.91
2019-01-31T13:20:33.456Z,96020.57
2019-01-31T13:23:02.976Z,96017.83
2019-01-31T13:25:32.471Z,96017.28
2019-01-31T13:28:01.959Z,96016.44
2019-01-31T13:30:31.461Z,96019.77
2019-01-31T13:33:00.938Z,96017.84
2019-01-31T13:35:30.460Z,96023.61
2019-01-31T13:37:59.979Z,96022.56
2019-01-31T13:40:29.452Z,96021.86
2019-01-31T13:42:59.955Z,96027.06
2019-01-31T13:45:36.376Z,96023.70
2019-01-31T13:48:08.940Z,96027.07
2019-01-31T13:50:38.418Z,96027.53
2019-01-31T13:53:08.581Z,96030.87
2019-01-31T13:55:37.998Z,96030.10
2019-01-31T13:58:10.121Z,96031.67
2019-01-31T14:00:38.667Z,96030.13
2019-01-31T14:03:08.286Z,96025.89
2019-01-31T14:05:37.829Z,96025.00
2019-01-31T14:08:07.311Z,96018.94
2019-01-31T14:10:37.399Z,96019.58
2019-01-31T14:13:07.072Z,96023.98
2019-01-31T14:15:36.735Z,96026.21
2019-01-31T14:18:06.454Z,96026.84
2019-01-31T14:20:36.611Z,96020.02
2019-01-31T14:23:06.186Z,96020.68
2019-01-31T14:25:35.738Z,96031.16
2019-01-31T14:28:05.209Z,96032.67
2019-01-31T14:30:37.555Z,96034.75
2019-01-31T14:33:09.729Z,96032.25
2019-01-31T14:35:39.194Z,96039.56
2019-01-31T14:38:08.675Z,96034.67
2019-01-31T14:40:38.173Z,96033.26
2019-01-31T14:43:07.644Z,96034.83
2019-01-31T14:45:37.112Z,96031.78
2019-01-31T14:48:06.915Z,96031.52
2019-01-31T14:50:36.884Z,96033.38
2019-01-31T14:53:06.840Z,96038.37
2019-01-31T14:55:36.339Z,96045.88
2019-01-31T14:58:07.447Z,96043.33
2019-01-31T15:00:36.921Z,96045.16
2019-01-31T15:03:06.509Z,96042.20
2019-01-31T15:05:36.852Z,96042.79
2019-01-31T15:08:06.626Z,96037.44
2019-01-31T15:10:36.139Z,96039.08
2019-01-31T15:13:05.610Z,96050.75
2019-01-31T15:15:35.097Z,96052.35
2019-01-31T15:18:06.409Z,96049.54
2019-01-31T15:20:40.348Z,96055.11
2019-01-31T15:23:09.901Z,96060.30
2019-01-31T15:25:39.470Z,96061.05
2019-01-31T15:28:09.000Z,96059.83
2019-01-31T15:30:38.715Z,96057.75
2019-01-31T15:33:11.534Z,96069.27
2019-01-31T15:35:41.208Z,96059.84
2019-01-31T15:38:10.689Z,96065.98
2019-01-31T15:40:45.932Z,96065.69
2019-01-31T15:43:15.402Z,96071.64
2019-01-31T15:45:44.986Z,96078.83
2019-01-31T15:48:14.903Z,96074.48
2019-01-31T15:50:44.363Z,96076.99
2019-01-31T15:53:13.956Z,96070.97
2019-01-31T15:55:43.419Z,96069.45
2019-01-31T15:58:12.890Z,96077.80
2019-01-31T16:00:46.680Z,96074.54
2019-01-31T16:03:18.679Z,96072.84
2019-01-31T16:05:48.147Z,96075.06
2019-01-31T16:08:17.615Z,96069.73
2019-01-31T16:10:47.119Z,96071.84
2019-01-31T16:13:16.688Z,96071.61
2019-01-31T16:15:46.373Z,96075.36
2019-01-31T16:18:15.910Z,96082.42
2019-01-31T16:20:45.397Z,96087.66
2019-01-31T16:23:14.894Z,96091.47
2019-01-31T16:25:47.483Z,96093.89
2019-01-31T16:28:15.595Z,96088.61
2019-01-31T16:30:45.078Z,96094.14
2019-01-31T16:33:14.604Z,96095.83
2019-01-31T16:35:44.091Z,96096.91
2019-01-31T16:38:13.553Z,96098.26
2019-01-31T16:40:43.572Z,96097.62
2019-01-31T16:43:13.052Z,96095.31
2019-01-31T16:45:42.546Z,96092.30
2019-01-31T16:48:12.028Z,96095.98
2019-01-31T16:50:41.895Z,96099.80
2019-01-31T16:53:11.400Z,96109.56
2019-01-31T16:55:40.884Z,96105.23
2019-01-31T16:58:10.379Z,96102.41
2019-01-31T17:00:39.884Z,96104.12
2019-01-31T17:03:09.394Z,96103.78
2019-01-31T17:05:38.955Z,96098.95
2019-01-31T17:08:08.532Z,96106.53
2019-01-31T17:10:38.098Z,96109.92
2019-01-31T17:13:08.390Z,96106.56
2019-01-31T17:15:37.894Z,96104.19
2019-01-31T17:18:07.394Z,96103.77
2019-01-31T17:20:40.563Z,96113.36
2019-01-31T17:23:10.081Z,96120.73
2019-01-31T17:25:39.548Z,96117.42
2019-01-31T17:28:09.211Z,96113.49
2019-01-31T17:30:38.764Z,96116.83
2019-01-31T17:33:08.233Z,96118.94
2019-01-31T17:35:37.725Z,96113.78
2019-01-31T17:38:07.425Z,96098.44
2019-01-31T17:40:38.482Z,96103.91
2019-01-31T17:43:08.859Z,96107.27
2019-01-31T17:45:38.364Z,96106.95
2019-01-31T17:48:07.947Z,96112.27
2019-01-31T17:50:37.573Z,96112.11
2019-01-31T17:53:07.104Z,96111.39
2019-01-31T17:55:36.648Z,96114.97
2019-01-31T17:58:06.559Z,96122.83
2019-01-31T18:00:42.412Z,96118.26
2019-01-31T18:03:12.062Z,96119.63
2019-01-31T18:05:41.563Z,96117.14
2019-01-31T18:08:11.028Z,96121.09
2019-01-31T18:10:40.544Z,96122.12
2019-01-31T18:13:09.990Z,96125.80
2019-01-31T18:15:42.234Z,96127.17
2019-01-31T18:18:10.722Z,96123.48
2019-01-31T18:20:40.228Z,96127.70
2019-01-31T18:23:09.696Z,96134.39
2019-01-31T18:25:39.220Z,96129.92
2019-01-31T18:28:08.684Z,96136.42
2019-01-31T18:30:39.076Z,96141.59
2019-01-31T18:33:08.639Z,96147.34
2019-01-31T18:35:38.125Z,96149.02
2019-01-31T18:38:07.683Z,96149.10
2019-01-31T18:40:37.600Z,96146.27
2019-01-31T18:43:07.076Z,96152.86
2019-01-31T18:45:37.035Z,96154.67
2019-01-31T18:48:07.249Z,96158.23
2019-01-31T18:50:41.581Z,96154.86
2019-01-31T18:53:11.073Z,96160.00
2019-01-31T18:55:40.582Z,96161.37
2019-01-31T18:58:10.083Z,96161.45
2019-01-31T19:00:45.488Z,96156.52
2019-01-31T19:03:14.968Z,96155.84
2019-01-31T19:05:44.516Z,96157.94
2019-01-31T19:08:14.053Z,96155.70
2019-01-31T19:10:43.940Z,96143.66
2019-01-31T19:13:13.690Z,96147.98
2019-01-31T19:15:43.198Z,96152.36
2019-01-31T19:18:12.688Z,96151.79
2019-01-31T19:20:42.257Z,96155.75
2019-01-31T19:23:11.753Z,96155.62
2019-01-31T19:25:41.326Z,96155.03
2019-01-31T19:28:13.159Z,96145.78
2019-01-31T19:30:42.491Z,96151.47
2019-01-31T19:33:12.034Z,96149.87
2019-01-31T19:35:41.522Z,96148.02
2019-01-31T19:38:11.075Z,96144.45
2019-01-31T19:40:43.664Z,96141.23
2019-01-31T19:43:13.164Z,96135.41
2019-01-31T19:45:45.768Z,96133.31
2019-01-31T19:48:15.534Z,96139.03
2019-01-31T19:50:45.064Z,96132.92
2019-01-31T19:53:14.524Z,96133.98
2019-01-31T19:55:44.134Z,96132.83
2019-01-31T19:58:13.812Z,96142.52
2019-01-31T20:00:43.376Z,96132.15
2019-01-31T20:03:13.659Z,96121.94
2019-01-31T20:05:43.306Z,96117.10
2019-01-31T20:08:12.885Z,96113.34
2019-01-31T20:10:42.385Z,96116.54
2019-01-31T20:13:11.873Z,96123.74
2019-01-31T20:15:41.894Z,96127.55
2019-01-31T20:18:11.371Z,96127.71
2019-01-31T20:20:42.849Z,96136.38
2019-01-31T20:23:12.732Z,96143.27
2019-01-31T20:25:42.254Z,96141.19
2019-01-31T20:28:12.147Z,96143.38
2019-01-31T20:30:44.759Z,96151.85
2019-01-31T20:33:15.036Z,96154.69
2019-01-31T20:35:44.525Z,96151.73
2019-01-31T20:38:14.462Z,96153.82
2019-01-31T20:40:44.092Z,96152.20
2019-01-31T20:43:13.627Z,96155.19
2019-01-31T20:45:43.116Z,96158.63
2019-01-31T20:48:12.606Z,96160.27
2019-01-31T20:50:42.040Z,96159.23
2019-01-31T20:53:11.439Z,96155.97
2019-01-31T20:55:40.959Z,96157.94
2019-01-31T20:58:10.432Z,96157.38
2019-01-31T21:00:42.498Z,96155.49
2019-01-31T21:03:12.239Z,96159.73
2019-01-31T21:05:41.818Z,96157.13
2019-01-31T21:08:11.617Z,96157.61
2019-01-31T21:10:41.062Z,96159.86
2019-01-31T21:13:10.557Z,96158.95
2019-01-31T21:15:40.054Z,96157.79
2019-01-31T21:18:09.578Z,96159.02
2019-01-31T21:20:39.059Z,96155.02
2019-01-31T21:23:08.733Z,96141.00
2019-01-31T21:25:38.251Z,96133.66
2019-01-31T21:28:07.726Z,96133.42
2019-01-31T21:30:39.407Z,96133.38
2019-01-31T21:33:08.914Z,96124.58
2019-01-31T21:35:38.374Z,96126.20
2019-01-31T21:38:07.847Z,96125.12
2019-01-31T21:40:37.462Z,96122.28
2019-01-31T21:43:06.961Z,96115.83
2019-01-31T21:45:36.437Z,96117.12
2019-01-31T21:48:06.572Z,96119.59
2019-01-31T21:50:36.050Z,96123.56
2019-01-31T21:53:05.520Z,96118.34
2019-01-31T21:55:35.031Z,96119.44
2019-01-31T21:58:06.427Z,96117.69
2019-01-31T22:00:36.511Z,96122.49
2019-01-31T22:03:06.618Z,96121.20
2019-01-31T22:05:36.081Z,96121.30
2019-01-31T22:08:05.596Z,96122.43
2019-01-31T22:10:35.095Z,96122.13
2019-01-31T22:13:04.570Z,96125.88
2019-01-31T22:15:35.901Z,96128.48
2019-01-31T22:18:05.904Z,96126.66
2019-01-31T22:20:35.381Z,96129.47
2019-01-31T22:23:04.976Z,96134.58
2019-01-31T22:25:34.476Z,96138.11
2019-01-31T22:28:04.152Z,96137.88
2019-01-31T22:30:36.654Z,96135.33
2019-01-31T22:33:07.083Z,96140.84
2019-01-31T22:35:36.570Z,96148.07
2019-01-31T22:38:06.561Z,96145.34
2019-01-31T22:40:36.036Z,96138.23
2019-01-31T22:43:05.603Z,96137.11
2019-01-31T22:45:36.786Z,96131.66
2019-01-31T22:48:06.258Z,96129.93
2019-01-31T22:50:35.877Z,96128.21
2019-01-31T22:53:05.367Z,96125.19
2019-01-31T22:55:34.842Z,96121.31
2019-01-31T22:58:04.562Z,96123.49
2019-01-31T23:00:52.335Z,96113.59
2019-01-31T23:03:21.821Z,96116.11
2019-01-31T23:05:51.400Z,96108.87
2019-01-31T23:08:20.873Z,96101.29
2019-01-31T23:10:50.392Z,96103.97
2019-01-31T23:13:19.850Z,96105.03
2019-01-31T23:15:49.315Z,96105.06
2019-01-31T23:18:18.825Z,96101.03
2019-01-31T23:20:48.402Z,96108.63
2019-01-31T23:23:17.928Z,96106.49
2019-01-31T23:25:47.412Z,96104.27
2019-01-31T23:28:16.943Z,96104.33
2019-01-31T23:30:46.466Z,96107.31
2019-01-31T23:33:15.939Z,96106.16
2019-01-31T23:35:45.411Z,96101.92
2019-01-31T23:38:15.014Z,96105.66
2019-01-31T23:40:44.492Z,96106.03
2019-01-31T23:43:14.256Z,96106.98
2019-01-31T23:45:43.817Z,96110.20
2019-01-31T23:48:13.313Z,96113.89
2019-01-31T23:50:42.783Z,96106.34
2019-01-31T23:53:12.785Z,96101.46
2019-01-31T23:55:42.253Z,96104.84
2019-01-31T23:58:11.721Z,96097.74
